Latest Weather Observations for Dartmoor

IDV60801

Issued at 11:35 pm EST Tuesday 2 September 2014 (issued every 30 minutes, with the page automatically refreshed every 10 minutes)

About weather observations | Map of weather stations | Latest weather observations for VIC | Other Formats
Station Details ID: 090194 Name: DARTMOOR Lat: -37.92 Lon: 141.26 Height: 51.0 m
Data from the previous 72 hours. | See also: Recent months at Dartmoor
Date/Time
EST
Temp
°C
App
Temp
°C
Dew
Point
Rel
Hum
%
Delta-T
°C
Wind Press
QNH
hPa
Press
MSL
hPa
Rain
since 9 am
mm
Dir
 
Spd
km/h
Gust
km/h
Spd
kts
Gust
kts
02/11:30pm 7.3 6.7 7.3 100 0.0 NW 0 0 0 0 1025.8 1025.9 0.8
02/11:00pm 7.0 6.3 7.0 100 0.0 NW 0 0 0 0 1026.0 1026.1 0.8
02/10:30pm 7.5 6.9 7.5 100 0.0 CALM 0 0 0 0 1026.1 1026.2 0.8
02/10:00pm 8.0 7.5 8.0 100 0.0 CALM 0 0 0 0 1026.0 1026.1 0.8
02/09:30pm 8.0 7.5 8.0 100 0.0 CALM 0 0 0 0 1026.1 1026.2 0.8
02/09:00pm 8.2 7.0 8.2 100 0.0 S 4 4 2 2 1026.0 1026.1 0.8
02/08:30pm 8.4 6.3 8.4 100 0.0 SSW 9 13 5 7 1025.9 1026.0 0.8
02/08:00pm 7.3 5.5 7.3 100 0.0 S 6 9 3 5 1025.6 1025.7 0.6
02/07:30pm 8.0 6.2 8.0 100 0.0 SE 7 7 4 4 1025.3 1025.4 0.6
02/07:00pm 8.7 6.7 8.7 100 0.0 S 9 11 5 6 1025.1 1025.2 0.4
02/06:30pm 9.2 6.4 8.7 97 0.2 S 13 15 7 8 1025.0 1025.1 0.2
02/06:00pm 9.6 8.1 9.0 96 0.3 S 7 9 4 5 1024.5 1024.6 0.2
02/05:30pm 10.4 8.6 9.6 95 0.4 SSE 9 17 5 9 1024.3 1024.4 0.2
02/05:00pm 10.0 6.1 8.6 91 0.7 SSE 19 30 10 16 1024.0 1024.1 0.2
02/04:30pm 12.3 9.2 8.8 79 1.8 SSW 15 26 8 14 1023.6 1023.7 0.2
02/04:00pm 11.4 8.1 7.9 79 1.7 S 15 26 8 14 1023.3 1023.4 0.2
02/03:30pm 11.7 7.9 7.6 76 2.0 S 17 26 9 14 1023.2 1023.3 0.2
02/03:00pm 11.5 7.0 8.4 81 1.5 S 22 32 12 17 1023.2 1023.3 0.2
02/02:30pm 13.2 9.5 8.1 71 2.5 SW 17 28 9 15 1023.0 1023.1 0.2
02/02:00pm 13.3 9.0 7.1 66 3.0 SSW 19 28 10 15 1023.0 1023.1 0.2
02/01:30pm 13.4 9.1 7.2 66 3.0 SSW 19 26 10 14 1022.8 1022.9 0.2
02/01:00pm 12.9 8.7 8.4 74 2.2 S 20 28 11 15 1023.0 1023.1 0.2
02/12:30pm 12.4 8.8 8.3 76 2.0 SSW 17 26 9 14 1023.0 1023.1 0.2
02/12:00pm 10.6 6.6 8.4 86 1.1 S 19 30 10 16 1023.3 1023.4 0.2
02/11:30am 12.4 8.4 8.1 75 2.1 SSW 19 28 10 15 1023.3 1023.4 0.0
02/11:00am 11.3 7.3 8.9 85 1.2 SSW 20 28 11 15 1023.3 1023.4 0.0
02/10:30am 11.8 8.2 8.5 80 1.6 SSW 17 26 9 14 1023.1 1023.2 0.0
02/10:00am 11.5 8.4 8.9 84 1.3 S 15 24 8 13 1023.0 1023.1 0.0
02/09:30am 10.9 9.4 10.7 99 0.1 S 9 13 5 7 1022.8 1022.9 0.0
02/09:00am 9.8 8.5 9.8 100 0.0 S 7 9 4 5 1022.6 1022.7 4.8
02/08:30am 7.7 7.2 7.7 100 0.0 S 0 0 0 0 1022.1 1022.2 4.8
02/08:00am 6.2 5.3 6.2 100 0.0 CALM 0 0 0 0 1021.7 1021.8 4.8
02/07:30am 5.2 4.1 5.2 100 0.0 CALM 0 4 0 2 1021.2 1021.3 4.8
02/07:00am 5.9 5.0 5.9 100 0.0 CALM 0 0 0 0 1020.7 1020.8 4.8
02/06:30am 5.8 4.8 5.8 100 0.0 CALM 0 0 0 0 1020.2 1020.3 4.8
02/06:00am 6.2 5.3 6.2 100 0.0 SSW 0 0 0 0 1019.7 1019.8 4.8
02/05:30am 6.6 5.8 6.6 100 0.0 CALM 0 0 0 0 1019.2 1019.3 4.8
02/05:00am 6.4 5.6 6.4 100 0.0 CALM 0 0 0 0 1018.7 1018.8 4.8
02/04:30am 6.2 5.3 6.2 100 0.0 CALM 0 0 0 0 1018.3 1018.4 4.6
02/04:00am 6.3 5.1 6.3 100 0.0 W 2 4 1 2 1017.7 1017.7 4.6
02/03:30am 5.9 3.3 5.9 100 0.0 WSW 9 13 5 7 1018.0 1018.0 3.8
02/03:00am 5.0 3.9 5.0 100 0.0 CALM 0 0 0 0 1017.3 1017.3 3.6
02/02:30am 4.4 3.2 4.4 100 0.0 CALM 0 0 0 0 1017.4 1017.4 2.8
02/02:00am 3.9 2.6 3.9 100 0.0 CALM 0 0 0 0 1016.9 1016.9 2.8
02/01:30am 3.5 2.1 3.5 100 0.0 CALM 0 0 0 0 1016.6 1016.6 2.8
02/01:00am 4.5 3.3 4.5 100 0.0 CALM 0 0 0 0 1016.3 1016.3 2.8
02/12:30am 4.8 3.6 4.8 100 0.0 CALM 0 0 0 0 1016.3 1016.3 2.8
02/12:00am 5.5 3.3 5.5 100 0.0 WNW 6 9 3 5 1016.2 1016.2 2.8
 
Date/Time
EST
Temp
°C
App
Temp
°C
Dew
Point
Rel
Hum
%
Delta-T
°C
Wind Press
QNH
hPa
Press
MSL
hPa
Rain
since 9 am
mm
Dir
 
Spd
km/h
Gust
km/h
Spd
kts
Gust
kts
01/11:30pm 5.7 2.6 5.7 100 0.0 WNW 11 13 6 7 1015.8 1015.8 2.8
01/11:00pm 6.2 3.6 6.2 100 0.0 NW 9 11 5 6 1015.6 1015.6 2.8
01/10:30pm 7.1 5.1 7.1 100 0.0 NW 7 9 4 5 1015.4 1015.4 2.8
01/10:00pm 7.4 5.5 7.4 100 0.0 NW 7 9 4 5 1015.2 1015.2 2.8
01/09:30pm 8.2 7.4 8.2 100 0.0 SSW 2 4 1 2 1015.0 1015.0 2.8
01/09:00pm 8.1 6.0 8.1 100 0.0 WSW 9 19 5 10 1014.7 1014.7 2.6
01/08:30pm 7.3 4.6 7.3 100 0.0 WNW 11 13 6 7 1014.3 1014.3 2.4
01/08:00pm 7.6 5.0 7.6 100 0.0 WNW 11 13 6 7 1014.2 1014.2 2.4
01/07:30pm 7.7 5.8 7.6 99 0.0 W 7 9 4 5 1013.8 1013.8 2.4
01/07:00pm 8.5 6.6 7.7 95 0.4 W 7 9 4 5 1013.3 1013.3 2.4
01/06:30pm 9.3 7.7 8.1 92 0.6 W 6 7 3 4 1013.0 1013.0 2.4
01/06:00pm 10.2 8.4 8.1 87 1.0 WSW 7 13 4 7 1012.7 1012.7 2.4
01/05:30pm 11.0 8.1 8.1 82 1.4 WSW 13 20 7 11 1012.2 1012.2 2.4
01/05:00pm 11.4 8.3 9.0 85 1.2 WSW 15 26 8 14 1011.7 1011.7 2.4
01/04:30pm 12.2 11.2 12.2 100 0.0 WSW 9 17 5 9 1011.4 1011.4 2.4
01/04:00pm 11.0 9.2 11.0 100 0.0 WSW 11 15 6 8 1011.2 1011.2 2.4
01/03:30pm 12.7 9.4 10.8 88 1.0 SW 19 35 10 19 1010.8 1010.8 2.2
01/03:00pm 12.5 10.0 10.9 90 0.8 WSW 15 22 8 12 1010.5 1010.5 2.2
01/02:30pm 12.0 9.0 12.0 100 0.0 SW 19 26 10 14 1010.5 1010.5 2.2
01/02:00pm 11.0 7.7 11.0 100 0.0 WSW 19 30 10 16 1010.4 1010.4 2.2
01/01:30pm 12.5 11.2 12.5 100 0.0 WSW 11 17 6 9 1010.2 1010.2 2.0
01/01:00pm 10.9 9.5 10.9 100 0.0 W 9 13 5 7 1010.4 1010.4 2.0
01/12:30pm 10.3 9.3 10.3 100 0.0 W 6 17 3 9 1010.0 1010.0 2.0
01/12:00pm 10.6 8.7 10.6 100 0.0 W 11 17 6 9 1010.6 1010.6 1.4
01/11:30am 11.1 9.3 10.8 98 0.2 SW 11 19 6 10 1010.6 1010.6 0.6
01/11:00am 13.6 12.3 11.1 85 1.3 SW 9 15 5 8 1010.2 1010.2 0.0
01/10:30am 12.8 11.0 10.9 88 1.0 SSW 11 19 6 10 1010.2 1010.2 0.0
01/10:00am 12.7 11.0 12.5 99 0.1 SW 13 22 7 12 1010.3 1010.3 0.0
01/09:30am 12.3 11.3 12.3 100 0.0 SW 9 15 5 8 1010.1 1010.1 0.0
01/09:00am 11.0 11.3 11.0 100 0.0 CALM 0 0 0 0 1009.8 1009.8 4.4
01/08:30am 10.3 9.7 10.3 100 0.0 W 4 6 2 3 1009.4 1009.4 4.4
01/08:00am 10.2 9.5 10.2 100 0.0 WSW 4 6 2 3 1009.3 1009.3 4.4
01/07:30am 10.6 9.1 10.6 100 0.0 SW 9 13 5 7 1008.8 1008.8 4.4
01/07:00am 10.4 8.9 10.4 100 0.0 W 9 13 5 7 1008.6 1008.6 4.0
01/06:30am 10.6 9.1 10.6 100 0.0 WNW 9 15 5 8 1008.3 1008.3 4.0
01/06:00am 10.7 9.2 10.7 100 0.0 NW 9 11 5 6 1008.0 1008.0 4.0
01/05:30am 10.8 9.0 10.8 100 0.0 NW 11 15 6 8 1007.6 1007.7 4.0
01/05:00am 10.9 9.5 10.9 100 0.0 NW 9 15 5 8 1007.4 1007.5 3.6
01/04:30am 11.0 10.0 11.0 100 0.0 NNW 7 11 4 6 1007.7 1007.8 3.2
01/04:00am 10.9 10.8 10.9 100 0.0 NW 2 4 1 2 1007.3 1007.4 3.2
01/03:30am 11.3 8.1 11.3 100 0.0 W 19 35 10 19 1008.0 1008.0 3.2
01/03:00am 11.8 11.0 11.8 100 0.0 NW 7 13 4 7 1008.1 1008.1 2.4
01/02:30am 11.8 9.9 11.8 100 0.0 NNW 13 20 7 11 1008.3 1008.3 1.8
01/02:00am 11.8 10.3 11.8 100 0.0 NNW 11 19 6 10 1008.2 1008.2 1.0
01/01:30am 11.9 11.1 11.7 99 0.1 NW 7 11 4 6 1007.6 1007.7 0.6
01/01:00am 12.3 10.8 10.7 90 0.8 WNW 9 13 5 7 1007.3 1007.4 0.2
01/12:30am 12.7 10.1 9.3 80 1.7 NNW 13 20 7 11 1008.1 1008.1 0.2
01/12:00am 13.2 11.6 8.1 71 2.5 WNW 6 11 3 6 1007.6 1007.7 0.0
 
Date/Time
EST
Temp
°C
App
Temp
°C
Dew
Point
Rel
Hum
%
Delta-T
°C
Wind Press
QNH
hPa
Press
MSL
hPa
Rain
since 9 am
mm
Dir
 
Spd
km/h
Gust
km/h
Spd
kts
Gust
kts
31/11:30pm 14.3 12.3 7.1 62 3.5 NW 7 13 4 7 1007.6 1007.7 0.0
31/11:00pm 14.6 12.2 6.9 60 3.8 N 9 15 5 8 1007.5 1007.6 0.0
31/10:30pm 14.2 11.9 7.3 63 3.4 NNE 9 13 5 7 1008.2 1008.2 0.0
31/10:00pm 13.7 11.8 7.7 67 3.0 NE 7 11 4 6 1008.3 1008.3 0.0
31/09:30pm 14.2 12.9 7.5 64 3.3 N 4 6 2 3 1009.1 1009.1 0.0
31/09:00pm 14.3 13.3 7.4 63 3.4 NNW 2 6 1 3 1008.9 1008.9 0.0
31/08:30pm 15.2 12.4 7.0 58 4.0 W 11 15 6 8 1009.7 1009.7 0.0
31/08:00pm 15.4 13.1 7.4 59 4.0 WNW 9 13 5 7 1009.8 1009.8 0.0
31/07:30pm 15.6 13.7 7.6 59 4.0 WNW 7 9 4 5 1009.7 1009.7 0.0
31/07:00pm 15.5 13.4 8.3 62 3.6 WNW 9 13 5 7 1009.7 1009.7 0.0
31/06:30pm 16.6 14.5 6.7 52 4.9 NW 7 9 4 5 1009.1 1009.1 0.0
31/06:00pm 17.4 15.2 6.3 48 5.5 N 7 11 4 6 1008.6 1008.6 0.0
31/05:30pm 17.4 15.4 6.9 50 5.2 NNW 7 11 4 6 1009.1 1009.1 0.0
31/05:00pm 18.0 15.2 6.8 48 5.6 NNW 11 17 6 9 1009.6 1009.6 0.0
31/04:30pm 18.8 14.8 6.6 45 6.1 NNW 17 32 9 17 1009.8 1009.8 0.0
31/04:00pm 19.1 15.7 7.8 48 5.8 NNW 15 22 8 12 1010.0 1010.0 0.0
31/03:30pm 19.6 16.1 7.0 44 6.4 N 15 26 8 14 1010.1 1010.1 0.0
31/03:00pm 20.0 15.4 6.4 41 6.8 N 20 33 11 18 1010.1 1010.1 0.0
31/02:30pm 20.0 15.0 6.4 41 6.8 N 22 35 12 19 1010.5 1010.5 0.0
31/02:00pm 20.2 16.9 7.9 45 6.4 N 15 22 8 12 1010.9 1010.9 0.0
31/01:30pm 20.4 15.4 6.4 40 7.0 N 22 33 12 18 1011.2 1011.2 0.0
31/01:00pm 20.6 16.6 8.3 45 6.4 N 19 32 10 17 1011.7 1011.7 0.0
31/12:30pm 19.2 16.3 9.7 54 5.1 N 15 22 8 12 1012.3 1012.3 0.0
31/12:00pm 18.5 15.4 9.0 54 5.0 N 15 22 8 12 1012.8 1012.8 0.0
31/11:30am 17.6 15.0 9.2 58 4.4 N 13 19 7 10 1013.7 1013.8 0.0
31/11:00am 17.5 13.9 8.4 55 4.7 N 17 24 9 13 1013.8 1013.9 0.0
31/10:30am 16.6 13.1 8.6 59 4.1 N 17 26 9 14 1013.9 1014.0 0.0
31/10:00am 15.7 12.7 9.1 65 3.4 N 15 26 8 14 1014.2 1014.3 0.0
31/09:30am 14.1 11.2 8.3 68 2.9 NNE 13 22 7 12 1014.7 1014.8 0.0
31/09:00am 13.2 10.7 8.1 71 2.5 NNE 11 17 6 9 1015.0 1015.1 0.2
31/08:30am 12.5 10.0 8.0 74 2.2 N 11 15 6 8 1015.2 1015.3 0.2
31/08:00am 12.1 9.4 7.4 73 2.3 N 11 15 6 8 1015.3 1015.4 0.2
31/07:30am 12.4 9.7 7.3 71 2.5 N 11 17 6 9 1015.5 1015.6 0.2
31/07:00am 11.9 9.2 7.2 73 2.3 N 11 15 6 8 1015.5 1015.6 0.2
31/06:30am 12.0 9.2 6.9 71 2.4 N 11 17 6 9 1015.4 1015.5 0.2
31/06:00am 12.4 9.2 6.9 69 2.6 N 13 19 7 10 1015.3 1015.4 0.2
31/05:30am 12.7 9.2 7.2 69 2.7 NNE 15 24 8 13 1015.2 1015.3 0.2
31/05:00am 12.5 9.4 7.2 70 2.6 NNE 13 20 7 11 1015.3 1015.4 0.2
31/04:30am 12.7 9.2 7.4 70 2.6 N 15 22 8 12 1015.6 1015.7 0.2
31/04:00am 13.2 9.7 7.4 68 2.8 N 15 26 8 14 1015.7 1015.8 0.2
31/03:30am 13.1 10.5 7.8 70 2.6 NNE 11 17 6 9 1015.8 1015.9 0.2
31/03:00am 12.2 10.0 7.9 75 2.1 N 9 13 5 7 1016.2 1016.3 0.2
31/02:30am 12.4 10.2 7.9 74 2.2 N 9 15 5 8 1016.7 1016.8 0.2
31/02:00am 12.7 10.8 9.0 78 1.9 NNE 9 15 5 8 1016.8 1016.9 0.2
31/01:30am 12.5 10.1 8.8 78 1.9 NNE 11 15 6 8 1017.2 1017.3 0.2
31/01:00am 12.7 10.5 9.5 81 1.6 NNE 11 17 6 9 1017.4 1017.5 0.2
31/12:30am 11.7 10.7 10.9 95 0.4 N 7 11 4 6 1017.7 1017.8 0.2
31/12:00am 9.7 8.0 9.7 100 0.0 NE 9 13 5 7 1017.6 1017.7 0.2

Other Formats:

Comma delimited format used in spreadsheet applications
http://www.bom.gov.au/fwo/IDV60801/IDV60801.95822.axf

JavaScript Object Notation format (JSON) in row-major order
http://www.bom.gov.au/fwo/IDV60801/IDV60801.95822.json